Miami, Florida
Traffic Map
Current Weather Conditions
Miami, Florida
Few Clouds
Few Clouds
28°
Feels Like: 33°
Wind Chill: 28° Ceiling: Unl
Heat Index: 33° Visibility: 10mi
Dew Point: 24° Wind: 3mph
Humidity: 79% Direction: 180° (S)
Pressure: 30.01in Gusts: 0mph
Raw Report DataKMIA 200553Z 18003KT 10SM FEW060 28/24 A3001 RMK AO2 SLP163 T02830244 10294 20283 58007
Traffic Incident Summary
Active as of:
Severity:
Category:
InformationThere was an issue retrieving the traffic information for this location. Please try a different location or try again shortly.
Advertisements
Track Severe Weather on mobile